Terminal Aerodrome Forecast
Issued by NWS

Home | Current Version | Previous Version | Text Only | Print | Product List | Glossary On
Versions: 1 2 3 4 5 6 7 8 9 10 11 12 13 14 15 16
079
FTUS41 KCAR 282219 AAA
TAFHUL
TAF AMD
KHUL 282219Z 2822/2918 VRB03KT 6SM SHRA VCTS SCT025CB BKN045
      TEMPO 2822/2823 VRB15G30KT 2SM +TSRA OVC022CB
     FM290000 VRB03KT P6SM VCSH OVC045=

USA.gov is the U.S. government's official web portal to all federal, state and local government web resources and services.